Time;durP1;ratioP1;P1;durP2;ratioP2;P2;SDS_P1;SDS_P2;PMS_P1;PMS_P2;Temp;Humidity;BMP_temperature;BMP_pressure;BME280_temperature;BME280_humidity;BME280_pressure;Samples;Min_cycle;Max_cycle;Signal;HPM_P1;HPM_P2
2021/12/07 00:01:08;;;;;;;17.38;10.38;;;1.70;99.90;;;;;;5030334;28;20092;-82
2021/12/07 00:03:34;;;;;;;18.40;11.07;;;1.60;99.90;;;;;;5030888;28;20030;-83
2021/12/07 00:06:01;;;;;;;21.45;11.32;;;1.60;99.90;;;;;;5034267;28;20055;-82
2021/12/07 00:08:28;;;;;;;20.98;10.55;;;1.60;99.90;;;;;;5034534;28;20132;-82
2021/12/07 00:10:54;;;;;;;22.50;11.70;;;1.60;99.90;;;;;;5034022;28;20079;-82
2021/12/07 00:13:21;;;;;;;18.48;10.63;;;1.60;99.90;;;;;;5034274;28;20471;-82
2021/12/07 00:15:47;;;;;;;17.13;10.63;;;1.60;99.90;;;;;;5034045;28;20029;-82
2021/12/07 00:18:13;;;;;;;21.42;11.27;;;1.60;99.90;;;;;;5034064;28;20026;-81
2021/12/07 00:20:39;;;;;;;25.65;12.95;;;1.60;99.90;;;;;;5045474;28;20122;-81
2021/12/07 00:23:09;;;;;;;22.33;11.75;;;1.60;99.90;;;;;;5049975;28;20039;-81
2021/12/07 00:25:36;;;;;;;18.85;10.55;;;1.60;99.90;;;;;;5036221;28;20108;-82
2021/12/07 00:28:03;;;;;;;23.73;11.73;;;1.60;99.90;;;;;;5036019;28;20017;-82
2021/12/07 00:30:32;;;;;;;28.33;13.73;;;1.60;99.90;;;;;;5036102;28;20525;-82
2021/12/07 00:35:53;;;;;;;25.05;13.23;;;1.60;99.90;;;;;;5033558;28;20030;-81
2021/12/07 00:38:25;;;;;;;25.85;13.65;;;1.60;99.90;;;;;;5033865;28;20029;-82
2021/12/07 00:40:52;;;;;;;23.27;12.65;;;1.60;99.90;;;;;;5033685;28;20038;-82
2021/12/07 00:43:19;;;;;;;24.02;12.27;;;1.60;99.90;;;;;;5033298;28;20106;-82
2021/12/07 00:45:45;;;;;;;24.70;13.35;;;1.60;99.90;;;;;;5033561;28;20472;-82
2021/12/07 00:48:13;;;;;;;27.92;13.82;;;1.60;99.90;;;;;;5033264;28;20025;-82
2021/12/07 00:50:42;;;;;;;21.70;12.63;;;1.50;99.90;;;;;;5033336;28;20041;-82
2021/12/07 00:53:08;;;;;;;23.73;12.80;;;1.50;99.90;;;;;;5033484;28;20131;-82
2021/12/07 00:55:38;;;;;;;31.83;15.50;;;1.60;99.90;;;;;;5016679;28;20450;-82
2021/12/07 00:58:13;;;;;;;29.77;14.82;;;1.50;99.90;;;;;;5033163;28;20124;-82
2021/12/07 01:00:40;;;;;;;30.25;14.20;;;1.50;99.90;;;;;;5038297;28;20120;-82
2021/12/07 01:03:06;;;;;;;24.70;13.30;;;1.50;99.90;;;;;;5052648;28;20033;-81
2021/12/07 01:05:34;;;;;;;24.55;14.07;;;1.60;99.90;;;;;;5053328;28;20376;-82
2021/12/07 01:26:52;;;;;;;35.95;17.10;;;1.60;99.90;;;;;;5054749;28;20083;-82
2021/12/07 01:29:21;;;;;;;33.95;17.20;;;1.60;99.90;;;;;;5054668;28;20028;-82
2021/12/07 01:31:56;;;;;;;36.53;17.23;;;1.60;99.90;;;;;;5054562;28;20017;-82
2021/12/07 01:59:32;;;;;;;49.03;21.05;;;1.50;99.90;;;;;;5034431;28;20060;-82
2021/12/07 02:00:44;;;;;;;68.60;22.83;;;1.50;99.90;;;;;;5034206;28;20117;-82
2021/12/07 02:03:09;;;;;;;49.90;20.95;;;1.40;99.90;;;;;;5034085;28;20032;-82
2021/12/07 02:05:36;;;;;;;46.35;20.60;;;1.40;99.90;;;;;;5034044;28;20021;-82
2021/12/07 02:08:02;;;;;;;55.78;21.73;;;1.50;99.90;;;;;;5034196;28;20035;-82
2021/12/07 02:10:30;;;;;;;47.55;21.27;;;1.40;99.90;;;;;;5034123;28;20049;-82
2021/12/07 02:13:03;;;;;;;51.15;22.08;;;1.50;99.90;;;;;;5033912;28;20049;-82
2021/12/07 02:15:30;;;;;;;50.22;20.83;;;1.60;99.90;;;;;;5034070;28;20026;-82
2021/12/07 02:17:56;;;;;;;44.53;20.60;;;1.50;99.90;;;;;;5033818;28;20028;-82
2021/12/07 02:20:24;;;;;;;47.22;21.75;;;1.40;99.90;;;;;;5049049;28;20025;-82
2021/12/07 02:22:51;;;;;;;41.85;19.92;;;1.40;99.90;;;;;;5037494;28;20025;-82
2021/12/07 02:25:18;;;;;;;50.42;21.17;;;1.40;99.90;;;;;;5053607;28;20017;-82
2021/12/07 02:27:45;;;;;;;42.78;20.92;;;1.40;99.90;;;;;;5052864;28;20040;-82
2021/12/07 02:30:15;;;;;;;58.85;23.83;;;1.40;99.90;;;;;;5053579;28;20083;-82
2021/12/07 02:32:42;;;;;;;58.78;23.40;;;1.40;99.90;;;;;;5053343;28;20020;-82
2021/12/07 02:35:10;;;;;;;52.13;22.05;;;1.50;99.90;;;;;;5053240;28;20491;-82
2021/12/07 02:37:36;;;;;;;50.88;22.27;;;1.40;99.90;;;;;;5053365;28;20024;-82
2021/12/07 02:40:04;;;;;;;56.33;23.33;;;1.60;99.90;;;;;;5053410;28;20383;-82
2021/12/07 02:42:30;;;;;;;60.00;24.83;;;1.60;99.90;;;;;;5052799;28;20032;-82
2021/12/07 02:44:56;;;;;;;55.80;22.65;;;1.60;99.90;;;;;;5053193;28;20021;-82
2021/12/07 02:47:22;;;;;;;54.08;22.70;;;1.50;99.90;;;;;;5053247;28;20025;-82
2021/12/07 02:49:48;;;;;;;59.28;22.17;;;1.50;99.90;;;;;;5051043;28;20044;-82
2021/12/07 02:52:14;;;;;;;53.00;22.38;;;1.50;99.90;;;;;;5031958;28;20033;-82
2021/12/07 02:54:44;;;;;;;58.65;23.20;;;1.40;99.90;;;;;;5033186;28;20025;-82
2021/12/07 02:57:16;;;;;;;51.75;22.75;;;1.40;99.90;;;;;;5033335;28;20033;-82
2021/12/07 02:59:50;;;;;;;55.90;21.85;;;1.50;99.90;;;;;;5033217;28;20029;-82
2021/12/07 03:02:18;;;;;;;56.70;22.70;;;1.40;99.90;;;;;;5033479;28;20065;-82
2021/12/07 03:05:00;;;;;;;48.28;21.05;;;1.40;99.90;;;;;;5051006;28;20032;-82
2021/12/07 03:26:16;;;;;;;47.40;20.30;;;1.20;99.90;;;;;;5053361;28;20044;-83
2021/12/07 03:28:45;;;;;;;50.78;19.83;;;1.30;99.90;;;;;;5053090;28;20207;-83
2021/12/07 03:31:12;;;;;;;56.17;19.85;;;1.30;99.90;;;;;;5052605;28;20100;-83
2021/12/07 03:33:38;;;;;;;46.85;18.83;;;1.30;99.90;;;;;;5052635;28;20028;-83
2021/12/07 03:36:06;;;;;;;54.30;19.50;;;1.30;99.90;;;;;;5052754;28;20035;-83
2021/12/07 03:38:32;;;;;;;50.67;17.52;;;1.30;99.90;;;;;;5054873;28;20029;-83
2021/12/07 03:40:58;;;;;;;36.65;13.98;;;1.40;99.90;;;;;;5056769;28;20446;-83
2021/12/07 03:43:24;;;;;;;58.92;16.55;;;1.50;99.90;;;;;;5055024;28;20095;-83
2021/12/07 03:45:49;;;;;;;32.97;13.00;;;1.60;99.90;;;;;;5056398;28;20025;-83
2021/12/07 03:48:16;;;;;;;34.70;11.43;;;1.70;99.90;;;;;;5055193;28;20029;-83
2021/12/07 03:50:42;;;;;;;25.60;9.35;;;1.80;99.90;;;;;;5047233;28;20422;-83
2021/12/07 03:53:08;;;;;;;31.95;7.72;;;1.90;99.90;;;;;;5055897;28;20124;-83
2021/12/07 03:55:34;;;;;;;25.50;6.15;;;2.00;99.90;;;;;;5056437;28;20032;-83
2021/12/07 03:58:00;;;;;;;23.15;5.70;;;2.20;99.90;;;;;;5056258;28;20037;-84
2021/12/07 04:00:28;;;;;;;20.23;5.60;;;2.30;99.90;;;;;;5056221;28;20021;-83
2021/12/07 04:02:54;;;;;;;17.08;4.82;;;2.30;99.90;;;;;;5056169;28;20030;-84
2021/12/07 04:05:23;;;;;;;17.00;4.40;;;2.40;99.90;;;;;;5055045;28;20438;-84
2021/12/07 04:07:50;;;;;;;25.52;4.72;;;2.60;99.90;;;;;;5056107;28;20025;-83
2021/12/07 04:10:18;;;;;;;20.60;3.70;;;2.60;99.90;;;;;;5056343;28;20463;-84
2021/12/07 04:12:45;;;;;;;18.23;4.10;;;2.60;99.90;;;;;;5056093;28;20040;-84
2021/12/07 04:15:15;;;;;;;22.25;3.78;;;2.60;99.90;;;;;;5054713;28;20340;-84
2021/12/07 04:17:41;;;;;;;23.35;5.28;;;2.50;99.90;;;;;;5056138;28;20029;-83
2021/12/07 04:20:09;;;;;;;11.80;3.20;;;2.60;99.90;;;;;;5055965;28;20104;-83
2021/12/07 04:22:34;;;;;;;21.58;4.97;;;2.60;99.90;;;;;;5054007;28;20122;-84
2021/12/07 04:25:00;;;;;;;13.98;3.90;;;2.40;99.90;;;;;;5036061;28;20416;-84
2021/12/07 04:27:26;;;;;;;14.30;4.45;;;2.40;99.90;;;;;;5035857;28;20022;-84
2021/12/07 04:29:51;;;;;;;22.13;3.58;;;2.30;99.90;;;;;;5035794;28;20075;-84
2021/12/07 04:32:17;;;;;;;15.82;3.88;;;2.30;99.90;;;;;;5035827;28;20060;-84
2021/12/07 04:34:43;;;;;;;13.00;3.47;;;2.20;99.90;;;;;;5035747;28;20071;-82
2021/12/07 04:37:08;;;;;;;18.77;4.57;;;2.20;99.90;;;;;;5035680;28;20112;-83
2021/12/07 04:39:35;;;;;;;22.05;4.28;;;2.10;99.90;;;;;;5053729;28;20069;-82
2021/12/07 04:42:01;;;;;;;15.40;3.50;;;2.00;99.90;;;;;;5054142;28;20060;-82
2021/12/07 04:44:27;;;;;;;19.20;4.10;;;2.00;99.90;;;;;;5055390;28;20102;-83
2021/12/07 04:47:09;;;;;;;20.67;4.65;;;1.90;99.90;;;;;;5053992;28;20442;-82
2021/12/07 04:49:57;;;;;;;19.05;4.32;;;1.80;99.90;;;;;;5054859;28;20040;-82
2021/12/07 04:57:50;;;;;;;18.88;4.65;;;1.90;99.90;;;;;;5052501;28;20829;-82
2021/12/07 05:00:27;;;;;;;19.27;4.60;;;1.80;99.90;;;;;;5054734;28;20025;-82
2021/12/07 05:03:00;;;;;;;16.23;4.88;;;1.80;99.90;;;;;;5055018;28;20206;-82
2021/12/07 05:05:32;;;;;;;23.90;4.70;;;1.70;99.90;;;;;;5055053;28;20045;-82
2021/12/07 05:08:02;;;;;;;16.52;4.38;;;1.70;99.90;;;;;;5054998;28;20049;-82
2021/12/07 05:10:32;;;;;;;20.95;5.35;;;1.80;99.90;;;;;;5054196;28;20384;-82
2021/12/07 05:24:00;;;;;;;23.20;5.70;;;1.70;99.90;;;;;;5054873;28;20459;-82
2021/12/07 05:40:13;;;;;;;19.38;5.75;;;2.50;99.90;;;;;;5054467;28;20482;-82
2021/12/07 05:42:40;;;;;;;16.00;4.60;;;2.40;99.90;;;;;;5054022;28;20040;-81
2021/12/07 05:45:09;;;;;;;17.40;5.32;;;2.30;99.90;;;;;;5054267;28;20055;-81
2021/12/07 05:47:35;;;;;;;30.40;8.30;;;2.20;99.90;;;;;;5054305;28;20017;-81
2021/12/07 05:50:01;;;;;;;27.50;7.20;;;2.20;99.90;;;;;;5052781;28;20021;-81
2021/12/07 05:52:26;;;;;;;36.42;9.00;;;2.20;99.90;;;;;;5054214;28;20395;-81
2021/12/07 05:54:52;;;;;;;27.13;7.95;;;2.10;99.90;;;;;;5053978;28;20036;-81
2021/12/07 05:57:18;;;;;;;27.73;7.90;;;2.10;99.90;;;;;;5053926;28;20057;-81
2021/12/07 05:59:44;;;;;;;32.15;6.95;;;2.10;99.90;;;;;;5053770;28;20032;-82
2021/12/07 06:02:10;;;;;;;26.08;6.28;;;2.00;99.90;;;;;;5052889;28;20021;-82
2021/12/07 06:04:36;;;;;;;24.77;5.28;;;2.10;99.90;;;;;;5053871;28;20463;-82
2021/12/07 06:07:03;;;;;;;29.25;5.97;;;2.10;99.90;;;;;;5053657;28;20021;-82
2021/12/07 06:09:30;;;;;;;33.17;7.10;;;2.10;99.90;;;;;;5053697;28;20020;-82
2021/12/07 06:11:55;;;;;;;22.27;5.85;;;2.20;99.90;;;;;;5053792;28;20025;-82
2021/12/07 06:14:28;;;;;;;31.35;5.65;;;2.20;99.90;;;;;;5050399;28;20082;-83
2021/12/07 06:16:54;;;;;;;29.42;5.47;;;2.30;99.90;;;;;;5053734;28;20025;-82
2021/12/07 06:19:19;;;;;;;22.48;5.32;;;2.30;99.90;;;;;;5052370;28;20489;-82
2021/12/07 06:21:45;;;;;;;31.67;5.18;;;2.40;99.90;;;;;;5053532;28;20032;-82
2021/12/07 06:24:11;;;;;;;25.83;6.40;;;2.50;99.90;;;;;;5053553;28;20377;-82
2021/12/07 06:26:36;;;;;;;24.20;6.10;;;2.50;99.90;;;;;;5053680;28;20032;-82
2021/12/07 06:29:03;;;;;;;30.13;6.43;;;2.50;99.90;;;;;;5053700;28;20463;-82
2021/12/07 06:31:28;;;;;;;36.05;6.10;;;2.70;99.90;;;;;;5053555;28;20032;-82
2021/12/07 06:33:54;;;;;;;29.40;5.63;;;2.60;99.90;;;;;;5053554;28;20360;-82
2021/12/07 06:36:20;;;;;;;35.78;6.07;;;2.70;99.90;;;;;;5052195;28;20109;-83
2021/12/07 06:38:47;;;;;;;29.85;5.22;;;2.60;99.90;;;;;;5053353;28;20078;-82
2021/12/07 06:41:13;;;;;;;21.98;5.53;;;2.60;99.90;;;;;;5053253;28;20025;-82
2021/12/07 06:43:39;;;;;;;27.83;6.53;;;2.60;99.90;;;;;;5053048;28;20037;-82
2021/12/07 06:46:05;;;;;;;35.72;6.15;;;2.50;99.90;;;;;;5053060;28;20024;-83
2021/12/07 06:48:31;;;;;;;39.88;6.50;;;2.50;99.90;;;;;;5053070;28;20033;-83
2021/12/07 06:50:57;;;;;;;26.08;6.90;;;2.40;99.90;;;;;;5044692;28;20104;-82
2021/12/07 06:53:22;;;;;;;29.95;7.03;;;2.40;99.90;;;;;;5052741;28;20834;-82
2021/12/07 06:55:48;;;;;;;36.95;8.25;;;2.30;99.90;;;;;;5053216;28;20067;-83
2021/12/07 06:58:14;;;;;;;25.92;6.40;;;2.20;99.90;;;;;;5053179;28;20044;-83
2021/12/07 07:00:39;;;;;;;31.40;6.00;;;2.20;99.90;;;;;;5051605;28;20099;-83
2021/12/07 07:03:05;;;;;;;25.40;6.68;;;2.10;99.90;;;;;;5052489;28;20024;-83
2021/12/07 07:05:31;;;;;;;40.50;6.80;;;2.10;99.90;;;;;;5052991;28;20027;-83
2021/12/07 07:07:57;;;;;;;23.55;6.60;;;2.00;99.90;;;;;;5052799;28;20048;-83
2021/12/07 07:10:23;;;;;;;34.22;6.97;;;2.00;99.90;;;;;;5052905;28;20025;-83
2021/12/07 07:12:49;;;;;;;28.80;6.90;;;1.90;99.90;;;;;;5052021;28;20025;-83
2021/12/07 07:15:16;;;;;;;28.83;6.82;;;1.90;99.90;;;;;;5045823;28;20067;-84
2021/12/07 07:17:42;;;;;;;28.67;7.55;;;1.80;99.90;;;;;;5045032;28;20361;-81
2021/12/07 07:20:11;;;;;;;30.75;8.10;;;1.80;99.90;;;;;;5041129;28;20060;-82
2021/12/07 07:22:38;;;;;;;20.77;7.13;;;1.70;99.90;;;;;;5042012;28;20478;-81
2021/12/07 07:25:05;;;;;;;25.17;8.05;;;1.70;99.90;;;;;;5041566;28;20030;-81
2021/12/07 07:27:31;;;;;;;27.98;8.75;;;1.70;99.90;;;;;;5045705;28;20021;-79
2021/12/07 07:29:56;;;;;;;28.98;8.07;;;1.60;99.90;;;;;;5041640;28;20066;-80
2021/12/07 07:32:22;;;;;;;26.92;8.00;;;1.60;99.90;;;;;;5043216;28;20030;-80
2021/12/07 07:34:48;;;;;;;37.83;8.60;;;1.60;99.90;;;;;;5044426;28;20026;-80
2021/12/07 07:37:13;;;;;;;29.95;7.70;;;1.60;99.90;;;;;;5043387;28;20388;-80
2021/12/07 07:39:40;;;;;;;26.27;8.10;;;1.60;99.90;;;;;;5044594;28;20495;-80
2021/12/07 07:42:07;;;;;;;30.10;8.23;;;1.50;99.90;;;;;;5049739;28;20017;-80
2021/12/07 07:44:32;;;;;;;28.80;8.23;;;1.50;99.90;;;;;;5043704;28;20495;-80
2021/12/07 07:46:58;;;;;;;37.67;9.15;;;1.50;99.90;;;;;;5047633;28;20033;-80
2021/12/07 07:49:23;;;;;;;29.92;8.35;;;1.50;99.90;;;;;;5037583;28;20029;-80
2021/12/07 07:51:49;;;;;;;34.55;8.98;;;1.50;99.90;;;;;;5051140;28;20029;-80
2021/12/07 07:54:15;;;;;;;35.75;9.68;;;1.60;99.90;;;;;;5052535;28;20489;-80
2021/12/07 07:56:40;;;;;;;36.45;9.95;;;1.50;99.90;;;;;;5052864;28;20055;-80
2021/12/07 07:59:06;;;;;;;28.52;10.23;;;1.60;99.90;;;;;;5052181;28;20064;-80
2021/12/07 08:01:32;;;;;;;26.98;11.02;;;1.60;99.90;;;;;;5052713;28;20424;-80
2021/12/07 08:04:01;;;;;;;42.85;11.50;;;1.60;99.90;;;;;;5052293;28;20029;-80
2021/12/07 08:06:27;;;;;;;44.00;10.90;;;1.60;99.90;;;;;;5052392;28;20017;-80
2021/12/07 08:08:53;;;;;;;38.08;10.10;;;1.60;99.90;;;;;;5052269;28;20017;-80
2021/12/07 08:11:19;;;;;;;26.45;9.52;;;1.60;99.90;;;;;;5052380;28;20090;-80
2021/12/07 08:13:45;;;;;;;38.00;11.93;;;1.70;99.90;;;;;;5052338;28;20025;-80
2021/12/07 08:16:15;;;;;;;35.25;10.30;;;1.70;99.90;;;;;;5052303;28;20446;-80
2021/12/07 08:18:48;;;;;;;36.80;10.93;;;1.70;99.90;;;;;;5052210;28;20025;-81
2021/12/07 08:21:16;;;;;;;42.03;11.10;;;1.70;99.90;;;;;;5048895;28;20048;-82
2021/12/07 08:23:42;;;;;;;35.63;10.93;;;1.80;99.90;;;;;;5052639;28;20061;-81
2021/12/07 08:26:10;;;;;;;42.42;11.48;;;1.80;99.90;;;;;;5055067;28;20475;-81
2021/12/07 08:28:36;;;;;;;51.55;13.75;;;1.90;99.90;;;;;;5055372;28;20032;-73
2021/12/07 08:31:03;;;;;;;37.50;11.63;;;1.90;99.90;;;;;;5055376;28;20086;-79
2021/12/07 08:33:30;;;;;;;48.67;12.88;;;2.00;99.90;;;;;;5054396;28;20037;-79
2021/12/07 08:35:55;;;;;;;50.80;13.57;;;2.00;99.90;;;;;;5055782;28;20025;-79
2021/12/07 08:38:21;;;;;;;45.65;14.32;;;2.00;99.90;;;;;;5055912;28;20048;-79
2021/12/07 08:40:53;;;;;;;52.70;15.00;;;2.10;99.90;;;;;;5056003;28;20025;-79
2021/12/07 08:43:21;;;;;;;50.45;13.65;;;2.10;99.90;;;;;;5055067;28;20133;-79
2021/12/07 08:45:47;;;;;;;40.35;11.82;;;2.10;99.90;;;;;;5055494;28;20056;-79
2021/12/07 08:48:12;;;;;;;42.28;12.48;;;2.20;99.90;;;;;;5055509;28;20053;-79
2021/12/07 08:50:38;;;;;;;41.65;12.20;;;2.20;99.90;;;;;;5046581;28;20037;-79
2021/12/07 08:53:08;;;;;;;51.05;13.15;;;2.30;99.90;;;;;;5035471;28;20037;-78
2021/12/07 09:01:05;;;;;;;46.10;10.93;;;2.40;99.90;;;;;;5053103;28;20609;-78
2021/12/07 09:03:31;;;;;;;40.80;11.70;;;2.40;99.90;;;;;;5052655;28;20036;-78
2021/12/07 09:05:57;;;;;;;40.47;9.65;;;2.50;99.90;;;;;;5054054;28;20025;-78
2021/12/07 09:08:22;;;;;;;40.70;10.25;;;2.50;99.90;;;;;;5045857;28;20029;-79
2021/12/07 09:10:49;;;;;;;32.90;10.40;;;2.50;99.90;;;;;;5053824;28;20120;-77
2021/12/07 09:13:15;;;;;;;36.53;10.35;;;2.40;99.90;;;;;;5053443;28;20040;-78
2021/12/07 09:15:40;;;;;;;44.67;11.40;;;2.40;99.90;;;;;;5053902;28;20044;-78
2021/12/07 09:18:06;;;;;;;43.95;12.02;;;2.40;99.90;;;;;;5053683;28;20025;-78
2021/12/07 09:20:33;;;;;;;40.00;11.20;;;2.40;99.90;;;;;;5053340;28;20100;-78
2021/12/07 09:22:58;;;;;;;40.63;10.90;;;2.40;99.90;;;;;;5052087;28;20063;-78
2021/12/07 09:25:24;;;;;;;41.33;10.95;;;2.40;99.90;;;;;;5051745;28;20025;-78
2021/12/07 09:27:50;;;;;;;52.53;13.13;;;2.60;99.90;;;;;;5052925;28;20013;-78
2021/12/07 09:30:17;;;;;;;39.00;11.00;;;2.60;99.90;;;;;;5052979;28;20036;-78
2021/12/07 09:32:44;;;;;;;40.65;12.45;;;2.70;99.90;;;;;;5053079;28;20034;-78
2021/12/07 09:35:10;;;;;;;44.90;12.48;;;2.80;99.90;;;;;;5052668;28;20049;-78
2021/12/07 09:37:37;;;;;;;42.17;11.52;;;2.80;99.90;;;;;;5052753;28;20040;-78
2021/12/07 09:40:07;;;;;;;34.78;11.02;;;2.90;99.90;;;;;;5052548;28;20668;-78
2021/12/07 09:42:32;;;;;;;33.30;9.70;;;3.10;99.90;;;;;;5052786;28;20136;-78
2021/12/07 09:44:58;;;;;;;36.92;10.52;;;3.30;99.90;;;;;;5052827;28;20119;-78
2021/12/07 09:47:24;;;;;;;35.67;10.15;;;3.40;99.90;;;;;;5053209;28;20433;-78
2021/12/07 09:49:50;;;;;;;36.92;10.70;;;3.40;99.90;;;;;;5049121;28;20028;-77
2021/12/07 09:52:16;;;;;;;39.20;12.13;;;3.50;99.90;;;;;;5051738;28;20025;-78
2021/12/07 09:54:42;;;;;;;32.58;10.60;;;3.40;99.90;;;;;;5051375;28;20029;-77
2021/12/07 09:57:08;;;;;;;45.60;10.98;;;3.50;99.90;;;;;;5052853;28;20477;-76
2021/12/07 09:59:33;;;;;;;37.35;10.45;;;3.40;99.90;;;;;;5052786;28;20404;-76
2021/12/07 10:01:59;;;;;;;34.30;11.18;;;3.40;99.90;;;;;;5052795;28;20045;-77
2021/12/07 10:04:27;;;;;;;41.60;12.00;;;3.40;99.90;;;;;;5052721;28;20017;-77
2021/12/07 10:06:56;;;;;;;37.53;12.23;;;3.40;99.90;;;;;;5053050;28;20397;-77
2021/12/07 10:09:22;;;;;;;34.08;12.02;;;3.40;99.90;;;;;;5052983;28;20029;-76
2021/12/07 10:11:52;;;;;;;38.10;13.55;;;3.40;99.90;;;;;;5053039;28;20485;-77
2021/12/07 10:14:18;;;;;;;42.53;13.43;;;3.40;99.90;;;;;;5053024;28;20106;-78
2021/12/07 10:16:49;;;;;;;51.50;13.55;;;3.40;99.90;;;;;;5052602;28;20452;-75
2021/12/07 10:19:34;;;;;;;46.03;13.27;;;3.50;99.90;;;;;;5051386;28;20037;-74
2021/12/07 10:22:15;;;;;;;43.25;13.30;;;3.40;99.90;;;;;;5052492;28;20104;-74
2021/12/07 10:24:47;;;;;;;56.78;15.68;;;3.50;99.90;;;;;;5033222;28;20128;-74
2021/12/07 10:27:29;;;;;;;46.05;13.80;;;3.50;99.90;;;;;;5032709;28;20049;-76
2021/12/07 10:29:55;;;;;;;43.45;14.35;;;3.50;99.90;;;;;;5032617;28;20121;-76
2021/12/07 10:32:21;;;;;;;41.80;14.57;;;3.60;99.90;;;;;;5033143;28;20136;-76
2021/12/07 10:34:47;;;;;;;43.10;14.65;;;3.50;99.90;;;;;;5030836;28;20112;-76
2021/12/07 10:37:15;;;;;;;45.67;15.45;;;3.60;99.90;;;;;;5049794;28;20387;-76
2021/12/07 10:39:42;;;;;;;45.63;13.93;;;3.70;99.90;;;;;;5051715;28;20087;-76
2021/12/07 10:42:14;;;;;;;47.60;14.35;;;3.70;99.90;;;;;;5048879;28;20493;-76
2021/12/07 10:44:41;;;;;;;41.67;13.85;;;3.80;99.90;;;;;;5051527;28;20080;-76
2021/12/07 10:47:12;;;;;;;51.80;14.05;;;3.90;99.90;;;;;;5050984;28;20024;-76
2021/12/07 10:49:51;;;;;;;46.97;13.50;;;4.00;99.90;;;;;;5051267;28;20115;-76
2021/12/07 10:52:48;;;;;;;46.50;13.40;;;4.00;99.90;;;;;;5050001;28;20021;-75
2021/12/07 10:55:26;;;;;;;34.85;12.20;;;4.00;99.90;;;;;;5029563;28;20093;-78
2021/12/07 10:57:54;;;;;;;47.80;13.25;;;4.10;99.90;;;;;;5013270;28;20173;-79
2021/12/07 11:00:30;;;;;;;50.22;11.95;;;4.10;99.90;;;;;;5029583;28;20072;-79
2021/12/07 11:03:06;;;;;;;45.15;10.73;;;4.10;99.90;;;;;;5038492;28;20026;-78
2021/12/07 11:05:35;;;;;;;34.03;11.25;;;4.20;99.90;;;;;;5030352;28;20127;-78
2021/12/07 11:08:02;;;;;;;34.63;10.32;;;4.30;99.90;;;;;;5030276;28;20029;-79
2021/12/07 11:10:33;;;;;;;35.65;10.20;;;4.40;99.90;;;;;;5014286;28;20026;-79
2021/12/07 11:15:38;;;;;;;26.50;9.10;;;4.40;99.90;;;;;;5030185;28;20029;-78
2021/12/07 11:18:11;;;;;;;31.17;10.02;;;4.50;99.90;;;;;;5029985;28;20041;-77
2021/12/07 11:20:38;;;;;;;29.90;9.90;;;4.50;99.90;;;;;;5030467;28;20918;-78
2021/12/07 11:23:13;;;;;;;30.33;9.52;;;4.60;99.90;;;;;;5025528;28;20379;-78
2021/12/07 11:25:53;;;;;;;31.75;9.05;;;4.60;99.90;;;;;;5012790;28;20466;-78
2021/12/07 11:31:15;;;;;;;36.60;9.10;;;4.70;99.90;;;;;;5031447;28;20159;-77
2021/12/07 11:33:41;;;;;;;29.27;7.30;;;4.70;99.90;;;;;;5050541;28;20335;-77
2021/12/07 11:36:27;;;;;;;42.22;9.80;;;4.80;99.90;;;;;;5050392;28;20116;-77
2021/12/07 11:38:54;;;;;;;37.20;8.90;;;4.80;99.90;;;;;;5051860;28;20025;-77
2021/12/07 11:41:31;;;;;;;37.72;8.40;;;4.80;99.90;;;;;;5051984;28;20043;-77
2021/12/07 11:44:08;;;;;;;30.60;8.32;;;4.90;99.90;;;;;;5051874;28;20037;-77
2021/12/07 11:46:36;;;;;;;25.38;6.72;;;5.00;99.90;;;;;;5051949;28;20029;-76
2021/12/07 11:49:09;;;;;;;23.60;6.68;;;4.90;99.90;;;;;;5050509;28;20024;-77
2021/12/07 11:51:36;;;;;;;25.30;6.35;;;5.00;99.90;;;;;;5047551;28;20053;-77
2021/12/07 11:54:03;;;;;;;22.30;6.15;;;4.90;99.90;;;;;;5030673;28;20801;-77
2021/12/07 11:56:30;;;;;;;27.65;7.55;;;5.00;99.90;;;;;;5047048;28;20029;-77
2021/12/07 11:58:56;;;;;;;27.65;6.80;;;5.00;99.90;;;;;;5044597;28;20033;-79
2021/12/07 12:01:22;;;;;;;27.90;6.43;;;5.10;99.90;;;;;;5056025;28;20025;-80
2021/12/07 12:03:47;;;;;;;22.75;6.82;;;5.10;99.90;;;;;;5055541;28;20029;-79
2021/12/07 12:06:13;;;;;;;24.70;6.32;;;5.10;99.90;;;;;;5055688;28;20066;-79
2021/12/07 12:08:40;;;;;;;19.67;6.35;;;5.10;99.90;;;;;;5056010;28;20111;-79
2021/12/07 12:11:21;;;;;;;26.08;5.88;;;5.10;99.90;;;;;;5055660;28;20047;-79
2021/12/07 12:14:06;;;;;;;17.23;5.57;;;5.20;99.90;;;;;;5045856;28;20056;-79
2021/12/07 12:17:08;;;;;;;17.23;5.72;;;5.20;99.90;;;;;;5050452;28;20025;-79
2021/12/07 12:19:57;;;;;;;19.33;5.77;;;5.30;99.90;;;;;;5055777;28;20059;-79
2021/12/07 12:22:40;;;;;;;19.02;5.25;;;5.40;99.90;;;;;;5055666;28;20274;-79
2021/12/07 12:25:13;;;;;;;18.92;5.60;;;5.40;99.90;;;;;;5054383;28;20121;-79
2021/12/07 12:27:39;;;;;;;18.88;4.95;;;5.40;99.90;;;;;;5054363;28;20071;-79
2021/12/07 12:30:19;;;;;;;19.10;5.68;;;5.40;99.90;;;;;;5055487;28;20021;-79
2021/12/07 12:32:48;;;;;;;18.15;5.57;;;5.40;99.90;;;;;;5055705;28;20029;-79
2021/12/07 12:35:14;;;;;;;17.50;5.75;;;5.50;99.90;;;;;;5055653;28;20075;-79
2021/12/07 12:37:47;;;;;;;23.13;5.68;;;5.50;99.90;;;;;;5055330;28;20109;-79
2021/12/07 12:40:25;;;;;;;16.60;5.18;;;5.50;99.90;;;;;;5055069;28;20029;-79
2021/12/07 12:42:54;;;;;;;20.13;7.10;;;5.50;99.90;;;;;;5054709;28;20033;-79
2021/12/07 12:45:35;;;;;;;22.52;5.35;;;5.50;99.90;;;;;;5055254;28;20379;-79
2021/12/07 12:48:04;;;;;;;19.50;5.22;;;5.50;99.90;;;;;;5054940;28;20051;-79
2021/12/07 12:50:42;;;;;;;15.07;4.25;;;5.60;99.90;;;;;;5047167;28;20089;-79
2021/12/07 12:53:12;;;;;;;25.25;4.72;;;5.60;99.90;;;;;;5033732;28;20069;-79
2021/12/07 12:55:40;;;;;;;22.42;4.68;;;5.60;99.90;;;;;;5035349;28;20451;-79
2021/12/07 12:58:10;;;;;;;20.83;4.65;;;5.60;99.90;;;;;;5035357;28;20033;-79
2021/12/07 13:00:57;;;;;;;18.65;4.57;;;5.60;99.90;;;;;;5034948;28;20033;-80
2021/12/07 13:03:23;;;;;;;16.83;4.55;;;5.70;99.90;;;;;;5034517;28;20030;-81
2021/12/07 13:06:00;;;;;;;16.55;5.20;;;5.70;99.90;;;;;;5050366;28;20036;-79
2021/12/07 13:08:27;;;;;;;16.02;4.47;;;5.70;99.90;;;;;;5038665;28;20483;-79
2021/12/07 13:10:56;;;;;;;25.08;5.03;;;5.80;99.90;;;;;;5054169;28;20099;-79
2021/12/07 13:13:35;;;;;;;17.33;4.32;;;5.80;99.90;;;;;;5054726;28;20061;-79
2021/12/07 13:16:17;;;;;;;19.65;4.75;;;5.80;99.90;;;;;;5052558;28;20017;-79
2021/12/07 13:18:43;;;;;;;19.60;4.55;;;5.70;99.90;;;;;;5053836;28;20040;-79
2021/12/07 13:21:27;;;;;;;20.58;4.03;;;5.70;99.90;;;;;;5054748;28;20133;-79
2021/12/07 13:24:03;;;;;;;22.27;4.88;;;5.70;99.90;;;;;;5047543;28;20033;-79
2021/12/07 13:26:40;;;;;;;17.90;5.38;;;5.60;99.90;;;;;;5054610;28;20039;-78
2021/12/07 13:29:19;;;;;;;16.15;4.90;;;5.60;99.90;;;;;;5051709;28;20494;-78
2021/12/07 13:31:51;;;;;;;14.80;4.80;;;5.50;99.90;;;;;;5050253;28;20021;-78
2021/12/07 13:34:35;;;;;;;20.00;5.13;;;5.50;99.90;;;;;;5052770;28;20029;-79
2021/12/07 13:37:08;;;;;;;25.00;5.97;;;5.50;99.90;;;;;;5051995;28;20032;-79
2021/12/07 13:39:47;;;;;;;23.85;5.63;;;5.50;99.90;;;;;;5054199;28;20033;-79
2021/12/07 13:42:20;;;;;;;15.23;4.43;;;5.50;99.90;;;;;;5054216;28;20025;-79
2021/12/07 13:44:54;;;;;;;27.98;5.20;;;5.40;99.90;;;;;;5045607;28;20041;-78
2021/12/07 13:47:23;;;;;;;18.08;5.05;;;5.40;99.90;;;;;;5054083;28;20470;-79
2021/12/07 13:49:56;;;;;;;16.10;4.45;;;5.40;99.90;;;;;;5051783;28;20032;-79
2021/12/07 13:52:29;;;;;;;23.23;4.00;;;5.30;99.90;;;;;;5034454;28;20036;-78
2021/12/07 13:54:57;;;;;;;15.13;3.97;;;5.30;99.90;;;;;;5044990;28;20040;-78
2021/12/07 13:57:29;;;;;;;18.83;4.85;;;5.30;99.90;;;;;;5053672;28;20082;-78
2021/12/07 14:00:12;;;;;;;17.40;4.30;;;5.20;99.90;;;;;;5042491;28;20375;-78
2021/12/07 14:02:41;;;;;;;19.88;4.85;;;5.20;99.90;;;;;;5034059;28;20048;-80
2021/12/07 14:05:14;;;;;;;15.43;4.30;;;5.20;99.90;;;;;;5033855;28;20060;-80
2021/12/07 14:07:41;;;;;;;18.83;4.00;;;5.20;99.90;;;;;;5036965;28;20067;-76
2021/12/07 14:10:17;;;;;;;21.35;4.13;;;5.20;99.90;;;;;;5054506;28;20025;-76
2021/12/07 14:12:43;;;;;;;29.02;4.53;;;5.10;99.90;;;;;;5051354;28;20017;-77
2021/12/07 14:15:15;;;;;;;15.85;4.70;;;5.10;99.90;;;;;;5044318;28;20518;-77
2021/12/07 14:17:48;;;;;;;16.45;3.58;;;5.10;99.90;;;;;;5043254;28;20787;-77
2021/12/07 14:20:48;;;;;;;17.52;3.50;;;5.10;99.90;;;;;;5044665;28;20061;-77
2021/12/07 14:23:20;;;;;;;22.33;5.40;;;5.00;99.90;;;;;;5046186;28;20144;-77
2021/12/07 14:26:11;;;;;;;19.30;4.57;;;4.90;99.90;;;;;;5045621;28;20455;-77
2021/12/07 14:28:51;;;;;;;14.63;3.63;;;4.90;99.90;;;;;;5024717;28;20029;-77
2021/12/07 14:31:23;;;;;;;15.25;3.88;;;4.90;99.90;;;;;;5015121;28;20038;-76
2021/12/07 14:33:59;;;;;;;15.93;4.63;;;4.80;99.90;;;;;;5030406;28;20068;-77
2021/12/07 14:36:46;;;;;;;18.83;4.85;;;4.80;99.90;;;;;;5030154;28;20049;-77
2021/12/07 14:39:21;;;;;;;17.83;5.50;;;4.80;99.90;;;;;;5037985;28;20033;-77